createdAt,value
2022-10-17T19:20:02.024Z,102141.00
2022-10-17T19:22:33.339Z,102138.09
2022-10-17T19:25:01.567Z,102140.72
2022-10-17T19:27:30.196Z,102146.84
2022-10-17T19:29:58.883Z,102143.34
2022-10-17T19:32:27.637Z,102145.19
2022-10-17T19:34:56.353Z,102143.44
2022-10-17T19:37:25.378Z,102148.69
2022-10-17T19:39:53.624Z,102149.63
2022-10-17T19:42:22.329Z,102149.69
2022-10-17T19:44:50.654Z,102157.66
2022-10-17T19:47:19.363Z,102146.06
2022-10-17T19:49:50.115Z,102147.97
2022-10-17T19:52:19.977Z,102143.34
2022-10-17T19:54:49.493Z,102143.44
2022-10-17T19:57:18.650Z,102141.69
2022-10-17T19:59:49.316Z,102150.56
2022-10-17T20:02:20.498Z,102137.34
2022-10-17T20:04:54.515Z,102139.84
2022-10-17T20:07:35.032Z,102136.34
2022-10-17T20:10:03.423Z,102134.38
2022-10-17T20:12:32.433Z,102129.25
2022-10-17T20:15:00.983Z,102133.47
2022-10-17T20:17:31.821Z,102136.25
2022-10-17T20:20:02.463Z,102131.09
2022-10-17T20:22:35.032Z,102131.09
2022-10-17T20:25:03.261Z,102138.31
2022-10-17T20:27:31.889Z,102131.22
2022-10-17T20:30:02.116Z,102133.06
2022-10-17T20:32:32.414Z,102135.69
2022-10-17T20:35:01.900Z,102136.56
2022-10-17T20:37:36.433Z,102141.03
2022-10-17T20:40:33.492Z,102149.06
2022-10-17T20:42:57.668Z,102138.31
2022-10-17T20:45:37.594Z,102142.69
2022-10-17T20:48:15.607Z,102149.94
2022-10-17T20:50:44.420Z,102149.22
2022-10-17T20:56:04.122Z,102151.22
2022-10-17T20:58:33.025Z,102149.44
2022-10-17T21:01:11.524Z,102158.44
2022-10-17T21:03:43.816Z,102154.94
2022-10-17T21:06:16.284Z,102160.28
2022-10-17T21:08:46.400Z,102154.94
2022-10-17T21:11:17.230Z,102155.81
2022-10-17T21:13:47.091Z,102151.34
2022-10-17T21:16:17.759Z,102154.81
2022-10-17T21:18:46.541Z,102149.59
2022-10-17T21:21:20.642Z,102150.56
2022-10-17T21:23:51.199Z,102154.94
2022-10-17T21:26:19.629Z,102148.81
2022-10-17T21:28:49.091Z,102149.69
2022-10-17T21:31:19.351Z,102159.41
2022-10-17T21:33:53.698Z,102145.22
2022-10-17T21:36:23.523Z,102153.09
2022-10-17T21:38:54.097Z,102155.91
2022-10-17T21:41:24.960Z,102152.22
2022-10-17T21:43:59.130Z,102147.94
2022-10-17T21:46:28.171Z,102147.25
2022-10-17T21:48:58.191Z,102144.56
2022-10-17T21:51:27.472Z,102144.56
2022-10-17T21:53:57.891Z,102146.31
2022-10-17T21:56:28.878Z,102145.31
2022-10-17T21:58:58.553Z,102140.16
2022-10-17T22:01:32.967Z,102142.81
2022-10-17T22:04:05.046Z,102140.97
2022-10-17T22:06:40.068Z,102140.06
2022-10-17T22:09:16.845Z,102139.22
2022-10-17T22:11:47.579Z,102134.81
2022-10-17T22:14:18.566Z,102130.38
2022-10-17T22:16:47.841Z,102138.56
2022-10-17T22:19:19.738Z,102134.09
2022-10-17T22:21:48.203Z,102126.13
2022-10-17T22:24:18.293Z,102127.00
2022-10-17T22:26:47.536Z,102137.59
2022-10-17T22:29:16.057Z,102129.66
2022-10-17T22:31:44.826Z,102129.69
2022-10-17T22:34:15.396Z,102127.88
2022-10-17T22:36:43.798Z,102132.34
2022-10-17T22:39:12.227Z,102138.72
2022-10-17T22:41:40.445Z,102129.69
2022-10-17T22:44:08.925Z,102132.34
2022-10-17T22:46:37.087Z,102128.84
2022-10-17T22:49:05.606Z,102133.38
2022-10-17T22:51:33.802Z,102128.03
2022-10-17T22:54:03.215Z,102126.28
2022-10-17T22:56:31.505Z,102127.16
2022-10-17T22:58:59.948Z,102134.25
2022-10-17T23:01:28.359Z,102128.03
2022-10-17T23:03:56.806Z,102121.81
2022-10-17T23:06:24.930Z,102128.91
2022-10-17T23:08:53.350Z,102133.38
2022-10-17T23:11:21.605Z,102131.72
2022-10-17T23:13:50.265Z,102123.69
2022-10-17T23:16:18.739Z,102125.41
2022-10-17T23:18:47.220Z,102121.03
2022-10-17T23:21:15.894Z,102125.31
2022-10-17T23:23:44.298Z,102128.09
2022-10-17T23:26:14.410Z,102119.28
2022-10-17T23:28:43.555Z,102113.09
2022-10-17T23:31:20.057Z,102116.69
2022-10-17T23:33:49.604Z,102112.13
2022-10-17T23:36:19.960Z,102114.72
2022-10-17T23:38:48.736Z,102112.19
2022-10-17T23:41:17.436Z,102113.09
2022-10-17T23:43:45.898Z,102115.78
2022-10-17T23:46:14.124Z,102110.38
2022-10-17T23:48:43.409Z,102107.66
2022-10-17T23:51:11.810Z,102114.84
2022-10-17T23:53:40.953Z,102107.91
2022-10-17T23:56:10.421Z,102112.34
2022-10-17T23:58:39.360Z,102115.06
